Terminal Aerodrome Forecast
Issued by NWS

Home | Current Version | Previous Version | Text Only | Print | Product List | Glossary On
Versions: 1 2 3 4 5 6 7 8 9 10 11 12 13
785
FTUS43 KSGF 101130
TAFJLN
TAF
KJLN 101130Z 1012/1112 VRB03KT P6SM OVC040
     FM101600 17007KT P6SM BKN060
     FM110200 17011G19KT P6SM BKN200
     FM110400 17011G19KT P6SM SCT200
     FM110800 18014G23KT P6SM BKN100
     FM111100 19016G25KT P6SM BKN025=

USA.gov is the U.S. government's official web portal to all federal, state and local government web resources and services.